Weather at Solt Field

Public forecast

Using degrees Fahrenheit for public forecast. Weather courtesy of forecast.io.

Closest aviation weather report (METAR) to Solt Field

Closest report is Jake Arner Memorial Airport, 2.7 nm (5.0 km) NW. Retrieved 2021/06/13 16:15 UTC (0 seconds ago):

K22N 131615Z AUTO 23003KT 10SM OVC020 21/16 A2993 RMK AO2

Closest aviation forecast (TAF) to Solt Field

Closest forecast is Lehigh Valley International Airport, 14.6 nm (27.1 km) ESE. Retrieved 2021/06/13 12:33 UTC (4 hours ago):

TAF KABE 131130Z 1312/1412 VRB03KT P6SM OVC035 TEMPO 1312/1313 -SHRA OVC025 FM131900 19004KT P6SM BKN040 FM140100 18004KT P6SM -SHRA OVC025 FM140700 15004KT 4SM -SHRA BR OVC015